Time,TemperatureF,DewpointF,PressureIn,WindDirection,WindDirectionDegrees,WindSpeedMPH,WindSpeedGustMPH,Humidity,HourlyPrecipIn,Conditions,Clouds,dailyrainin,SoftwareType,DateUTC
2015-05-06 00:01:00,44.0,39.2,30.22,WSW,257,0.0,0.0,83,0.00,,,0.00,Wunderground v.1.15,2015-05-06 04:01:00,
2015-05-06 00:06:00,43.8,39.3,30.22,WSW,257,0.0,0.0,84,0.00,,,0.00,Wunderground v.1.15,2015-05-06 04:06:00,
2015-05-06 00:12:00,43.7,39.2,30.22,WSW,257,0.0,0.0,84,0.00,,,0.00,Wunderground v.1.15,2015-05-06 04:12:00,
2015-05-06 00:17:00,43.7,39.2,30.22,WSW,257,0.0,0.0,84,0.00,,,0.00,Wunderground v.1.15,2015-05-06 04:17:00,
2015-05-06 00:23:00,43.5,39.0,30.22,WSW,257,0.0,0.0,84,0.00,,,0.00,Wunderground v.1.15,2015-05-06 04:23:00,
2015-05-06 00:29:00,43.3,39.4,30.23,WSW,257,0.0,0.0,86,0.00,,,0.00,Wunderground v.1.15,2015-05-06 04:29:00,
2015-05-06 00:35:00,43.2,39.3,30.23,WSW,257,0.0,0.0,86,0.00,,,0.00,Wunderground v.1.15,2015-05-06 04:35:00,
2015-05-06 00:41:00,42.7,38.8,30.23,WSW,257,0.0,0.0,86,0.00,,,0.00,Wunderground v.1.15,2015-05-06 04:41:00,
2015-05-06 00:47:00,42.3,38.4,30.23,WSW,257,0.0,2.0,86,0.00,,,0.00,Wunderground v.1.15,2015-05-06 04:47:00,
2015-05-06 00:53:00,42.1,38.2,30.23,WSW,257,0.0,0.0,86,0.00,,,0.00,Wunderground v.1.15,2015-05-06 04:53:00,
2015-05-06 00:58:00,41.9,38.3,30.23,WSW,257,0.0,0.0,87,0.00,,,0.00,Wunderground v.1.15,2015-05-06 04:58:00,
2015-05-06 01:04:00,41.6,37.7,30.23,WSW,257,0.0,0.0,86,0.00,,,0.00,Wunderground v.1.15,2015-05-06 05:04:00,
2015-05-06 01:10:00,41.3,37.7,30.23,WSW,257,0.0,0.0,87,0.00,,,0.00,Wunderground v.1.15,2015-05-06 05:10:00,
2015-05-06 01:15:00,41.2,37.6,30.23,WSW,257,0.0,0.0,87,0.00,,,0.00,Wunderground v.1.15,2015-05-06 05:15:00,
2015-05-06 01:21:00,40.9,37.3,30.23,WSW,257,0.0,0.0,87,0.00,,,0.00,Wunderground v.1.15,2015-05-06 05:21:00,
2015-05-06 01:27:00,40.5,37.5,30.23,WSW,257,0.0,0.0,89,0.00,,,0.00,Wunderground v.1.15,2015-05-06 05:27:00,
2015-05-06 01:32:00,40.4,37.4,30.23,WSW,257,0.0,0.0,89,0.00,,,0.00,Wunderground v.1.15,2015-05-06 05:32:00,
2015-05-06 01:38:00,39.9,36.9,30.23,WSW,257,0.0,0.0,89,0.00,,,0.00,Wunderground v.1.15,2015-05-06 05:38:00,
2015-05-06 01:43:00,39.7,36.7,30.23,WSW,257,0.0,0.0,89,0.00,,,0.00,Wunderground v.1.15,2015-05-06 05:43:00,
2015-05-06 01:49:00,39.9,37.2,30.23,WSW,257,0.0,0.0,90,0.00,,,0.00,Wunderground v.1.15,2015-05-06 05:49:00,
2015-05-06 01:55:00,39.6,36.9,30.23,WSW,257,0.0,0.0,90,0.00,,,0.00,Wunderground v.1.15,2015-05-06 05:55:00,
2015-05-06 02:00:00,39.4,37.0,30.23,WSW,257,0.0,0.0,91,0.00,,,0.00,Wunderground v.1.15,2015-05-06 06:00:00,
2015-05-06 02:05:00,39.4,37.0,30.23,WSW,257,0.0,0.0,91,0.00,,,0.00,Wunderground v.1.15,2015-05-06 06:05:00,
2015-05-06 02:10:00,38.9,36.2,30.24,WSW,257,0.0,0.0,90,0.00,,,0.00,Wunderground v.1.15,2015-05-06 06:10:00,
2015-05-06 02:15:00,38.4,35.7,30.24,WSW,257,0.0,2.0,90,0.00,,,0.00,Wunderground v.1.15,2015-05-06 06:15:00,
2015-05-06 02:20:00,38.0,35.3,30.24,WSW,257,0.0,0.0,90,0.00,,,0.00,Wunderground v.1.15,2015-05-06 06:20:00,
2015-05-06 02:25:00,38.1,35.7,30.24,WSW,257,0.0,2.0,91,0.00,,,0.00,Wunderground v.1.15,2015-05-06 06:25:00,
2015-05-06 02:30:00,38.0,35.6,30.24,WSW,257,0.0,0.0,91,0.00,,,0.00,Wunderground v.1.15,2015-05-06 06:30:00,
2015-05-06 02:35:00,37.8,35.7,30.24,WSW,257,0.0,0.0,92,0.00,,,0.00,Wunderground v.1.15,2015-05-06 06:35:00,
2015-05-06 02:40:00,37.9,35.8,30.24,WSW,257,0.0,0.0,92,0.00,,,0.00,Wunderground v.1.15,2015-05-06 06:40:00,
2015-05-06 02:45:00,38.0,35.9,30.24,WSW,257,0.0,0.0,92,0.00,,,0.00,Wunderground v.1.15,2015-05-06 06:45:00,
2015-05-06 02:50:00,37.8,35.4,30.24,WSW,257,0.0,0.0,91,0.00,,,0.00,Wunderground v.1.15,2015-05-06 06:50:00,
2015-05-06 03:00:00,37.4,35.3,30.24,WSW,257,0.0,0.0,92,0.00,,,0.00,Wunderground v.1.15,2015-05-06 07:00:00,
2015-05-06 03:05:00,37.0,34.9,30.24,WSW,257,0.0,1.0,92,0.00,,,0.00,Wunderground v.1.15,2015-05-06 07:05:00,
2015-05-06 03:10:00,36.8,34.7,30.24,WSW,257,0.0,1.0,92,0.00,,,0.00,Wunderground v.1.15,2015-05-06 07:10:00,
2015-05-06 03:15:00,36.7,34.6,30.24,WSW,257,0.0,2.0,92,0.00,,,0.00,Wunderground v.1.15,2015-05-06 07:15:00,
2015-05-06 03:20:00,36.6,34.8,30.24,WSW,257,2.0,3.0,93,0.00,,,0.00,Wunderground v.1.15,2015-05-06 07:20:00,
2015-05-06 03:25:00,36.2,34.1,30.24,WSW,258,0.0,3.0,92,0.00,,,0.00,Wunderground v.1.15,2015-05-06 07:25:00,
2015-05-06 03:30:00,36.3,34.5,30.24,WSW,258,1.0,2.0,93,0.00,,,0.00,Wunderground v.1.15,2015-05-06 07:30:00,
2015-05-06 03:35:00,36.3,34.5,30.24,WSW,258,0.0,2.0,93,0.00,,,0.00,Wunderground v.1.15,2015-05-06 07:35:00,
2015-05-06 03:40:00,36.1,34.3,30.24,WSW,258,0.0,0.0,93,0.00,,,0.00,Wunderground v.1.15,2015-05-06 07:40:00,
2015-05-06 03:45:00,36.1,34.3,30.24,WSW,258,0.0,0.0,93,0.00,,,0.00,Wunderground v.1.15,2015-05-06 07:45:00,
2015-05-06 03:50:00,36.1,34.3,30.24,WSW,258,0.0,0.0,93,0.00,,,0.00,Wunderground v.1.15,2015-05-06 07:50:00,
2015-05-06 03:55:00,36.0,34.2,30.24,WSW,258,0.0,0.0,93,0.00,,,0.00,Wunderground v.1.15,2015-05-06 07:55:00,
2015-05-06 04:00:00,36.0,34.4,30.24,WSW,258,0.0,0.0,94,0.00,,,0.00,Wunderground v.1.15,2015-05-06 08:00:00,
2015-05-06 04:05:00,36.0,34.4,30.24,WSW,258,0.0,0.0,94,0.00,,,0.00,Wunderground v.1.15,2015-05-06 08:05:00,
2015-05-06 04:10:00,35.7,34.1,30.25,WSW,258,0.0,0.0,94,0.00,,,0.00,Wunderground v.1.15,2015-05-06 08:10:00,
2015-05-06 04:15:00,35.5,33.9,30.25,WSW,258,0.0,0.0,94,0.00,,,0.00,Wunderground v.1.15,2015-05-06 08:15:00,
2015-05-06 04:20:00,35.4,33.8,30.25,WSW,258,0.0,0.0,94,0.00,,,0.00,Wunderground v.1.15,2015-05-06 08:20:00,
2015-05-06 04:25:00,35.4,33.8,30.25,WSW,258,0.0,0.0,94,0.00,,,0.00,Wunderground v.1.15,2015-05-06 08:25:00,
2015-05-06 04:30:00,35.5,34.2,30.25,WSW,258,0.0,0.0,95,0.00,,,0.00,Wunderground v.1.15,2015-05-06 08:30:00,
2015-05-06 04:35:00,35.5,34.2,30.25,WSW,258,0.0,0.0,95,0.00,,,0.00,Wunderground v.1.15,2015-05-06 08:35:00,
2015-05-06 04:40:00,35.3,33.7,30.25,WSW,256,0.0,0.0,94,0.00,,,0.00,Wunderground v.1.15,2015-05-06 08:40:00,
2015-05-06 04:45:00,35.1,33.8,30.25,WSW,256,0.0,0.0,95,0.00,,,0.00,Wunderground v.1.15,2015-05-06 08:45:00,
2015-05-06 04:50:00,35.1,33.8,30.25,WSW,256,0.0,0.0,95,0.00,,,0.00,Wunderground v.1.15,2015-05-06 08:50:00,
2015-05-06 04:55:00,35.0,33.7,30.25,WSW,256,0.0,0.0,95,0.00,,,0.00,Wunderground v.1.15,2015-05-06 08:55:00,
2015-05-06 05:00:00,35.0,33.7,30.25,WSW,256,0.0,0.0,95,0.00,,,0.00,Wunderground v.1.15,2015-05-06 09:00:00,
2015-05-06 05:05:00,34.9,33.6,30.26,WSW,256,0.0,0.0,95,0.00,,,0.00,Wunderground v.1.15,2015-05-06 09:05:00,
2015-05-06 05:10:00,34.9,33.6,30.26,WSW,256,0.0,0.0,95,0.00,,,0.00,Wunderground v.1.15,2015-05-06 09:10:00,
2015-05-06 05:16:00,34.7,33.4,30.25,WSW,256,0.0,0.0,95,0.00,,,0.00,Wunderground v.1.15,2015-05-06 09:16:00,
2015-05-06 05:21:00,34.5,33.2,30.26,WSW,256,0.0,0.0,95,0.00,,,0.00,Wunderground v.1.15,2015-05-06 09:21:00,
2015-05-06 05:26:00,34.5,33.2,30.26,WSW,256,0.0,0.0,95,0.00,,,0.00,Wunderground v.1.15,2015-05-06 09:26:00,
2015-05-06 05:30:00,34.4,33.1,30.25,WSW,256,0.0,0.0,95,0.00,,,0.00,Wunderground v.1.15,2015-05-06 09:30:00,
2015-05-06 05:35:00,34.5,33.2,30.25,WSW,256,0.0,2.0,95,0.00,,,0.00,Wunderground v.1.15,2015-05-06 09:35:00,
2015-05-06 05:41:00,34.4,33.1,30.25,WSW,256,0.0,0.0,95,0.00,,,0.00,Wunderground v.1.15,2015-05-06 09:41:00,
2015-05-06 05:46:00,34.3,33.0,30.25,WSW,256,1.0,2.0,95,0.00,,,0.00,Wunderground v.1.15,2015-05-06 09:46:00,
2015-05-06 05:51:00,34.3,33.0,30.26,WSW,256,2.0,2.0,95,0.00,,,0.00,Wunderground v.1.15,2015-05-06 09:51:00,
2015-05-06 05:56:00,34.4,33.1,30.25,WSW,256,0.0,2.0,95,0.00,,,0.00,Wunderground v.1.15,2015-05-06 09:56:00,
2015-05-06 06:01:00,34.6,33.3,30.26,WSW,256,0.0,0.0,95,0.00,,,0.00,Wunderground v.1.15,2015-05-06 10:01:00,
2015-05-06 06:06:00,34.9,33.9,30.25,WSW,256,0.0,0.0,96,0.00,,,0.00,Wunderground v.1.15,2015-05-06 10:06:00,
2015-05-06 06:11:00,35.1,33.8,30.25,WSW,256,0.0,0.0,95,0.00,,,0.00,Wunderground v.1.15,2015-05-06 10:11:00,
2015-05-06 06:16:00,35.4,34.1,30.26,WSW,256,0.0,0.0,95,0.00,,,0.00,Wunderground v.1.15,2015-05-06 10:16:00,
2015-05-06 06:21:00,35.7,34.7,30.26,WSW,256,0.0,0.0,96,0.00,,,0.00,Wunderground v.1.15,2015-05-06 10:21:00,
2015-05-06 06:26:00,36.1,35.1,30.26,WSW,255,0.0,0.0,96,0.00,,,0.00,Wunderground v.1.15,2015-05-06 10:26:00,
2015-05-06 06:31:00,36.4,35.1,30.26,WSW,255,0.0,0.0,95,0.00,,,0.00,Wunderground v.1.15,2015-05-06 10:31:00,
2015-05-06 06:36:00,36.8,35.5,30.27,WSW,255,0.0,0.0,95,0.00,,,0.00,Wunderground v.1.15,2015-05-06 10:36:00,
2015-05-06 06:41:00,37.0,35.7,30.27,WSW,255,0.0,0.0,95,0.00,,,0.00,Wunderground v.1.15,2015-05-06 10:41:00,
2015-05-06 06:46:00,37.5,36.2,30.27,WSW,255,0.0,2.0,95,0.00,,,0.00,Wunderground v.1.15,2015-05-06 10:46:00,
2015-05-06 06:51:00,38.1,36.5,30.27,WSW,255,0.0,0.0,94,0.00,,,0.00,Wunderground v.1.15,2015-05-06 10:51:00,
2015-05-06 06:56:00,38.7,37.1,30.27,WSW,255,0.0,0.0,94,0.00,,,0.00,Wunderground v.1.15,2015-05-06 10:56:00,
2015-05-06 07:01:00,39.5,37.6,30.28,WSW,255,0.0,0.0,93,0.00,,,0.00,Wunderground v.1.15,2015-05-06 11:01:00,
2015-05-06 07:06:00,40.8,38.9,30.28,WSW,255,0.0,0.0,93,0.00,,,0.00,Wunderground v.1.15,2015-05-06 11:06:00,
2015-05-06 07:11:00,41.6,39.2,30.28,WSW,255,0.0,0.0,91,0.00,,,0.00,Wunderground v.1.15,2015-05-06 11:11:00,
2015-05-06 07:16:00,42.6,40.2,30.28,WSW,255,0.0,1.0,91,0.00,,,0.00,Wunderground v.1.15,2015-05-06 11:16:00,
2015-05-06 07:21:00,44.2,41.5,30.28,WSW,255,0.0,0.0,90,0.00,,,0.00,Wunderground v.1.15,2015-05-06 11:21:00,
2015-05-06 07:26:00,45.1,41.8,30.28,WSW,255,0.0,0.0,88,0.00,,,0.00,Wunderground v.1.15,2015-05-06 11:26:00,
2015-05-06 07:31:00,46.7,42.4,30.28,WSW,255,0.0,0.0,85,0.00,,,0.00,Wunderground v.1.15,2015-05-06 11:31:00,
2015-05-06 07:36:00,48.4,42.8,30.28,WSW,255,0.0,0.0,81,0.00,,,0.00,Wunderground v.1.15,2015-05-06 11:36:00,
2015-05-06 07:41:00,49.9,43.6,30.28,WSW,256,1.0,1.0,79,0.00,,,0.00,Wunderground v.1.15,2015-05-06 11:41:00,
2015-05-06 07:46:00,51.3,43.3,30.28,WSW,256,0.0,1.0,74,0.00,,,0.00,Wunderground v.1.15,2015-05-06 11:46:00,
2015-05-06 07:51:00,53.0,43.1,30.28,WSW,256,1.0,1.0,69,0.00,,,0.00,Wunderground v.1.15,2015-05-06 11:51:00,
2015-05-06 07:56:00,53.9,42.8,30.28,West,261,1.0,3.0,66,0.00,,,0.00,Wunderground v.1.15,2015-05-06 11:56:00,
2015-05-06 08:01:00,54.8,41.6,30.28,West,264,2.0,3.0,61,0.00,,,0.00,Wunderground v.1.15,2015-05-06 12:01:00,
2015-05-06 08:06:00,55.5,43.1,30.28,West,264,1.0,3.0,63,0.00,,,0.00,Wunderground v.1.15,2015-05-06 12:06:00,
2015-05-06 08:11:00,56.3,41.3,30.28,NNW,337,0.0,2.0,57,0.00,,,0.00,Wunderground v.1.15,2015-05-06 12:11:00,
2015-05-06 08:16:00,56.9,40.9,30.28,NNW,337,1.0,4.0,55,0.00,,,0.00,Wunderground v.1.15,2015-05-06 12:16:00,
2015-05-06 08:22:00,57.8,41.7,30.28,NNW,337,0.0,1.0,55,0.00,,,0.00,Wunderground v.1.15,2015-05-06 12:22:00,
2015-05-06 08:27:00,58.5,41.4,30.28,NNW,337,0.0,4.0,53,0.00,,,0.00,Wunderground v.1.15,2015-05-06 12:27:00,
2015-05-06 08:32:00,59.1,41.0,30.28,NW,321,1.0,4.0,51,0.00,,,0.00,Wunderground v.1.15,2015-05-06 12:32:00,
2015-05-06 08:37:00,59.7,42.0,30.28,NW,322,1.0,4.0,52,0.00,,,0.00,Wunderground v.1.15,2015-05-06 12:37:00,
2015-05-06 08:42:00,60.5,40.2,30.28,NW,320,4.0,4.0,47,0.00,,,0.00,Wunderground v.1.15,2015-05-06 12:42:00,
2015-05-06 08:47:00,61.1,43.3,30.28,NW,318,0.0,5.0,52,0.00,,,0.00,Wunderground v.1.15,2015-05-06 12:47:00,
2015-05-06 08:52:00,61.3,44.5,30.28,WNW,289,2.0,4.0,54,0.00,,,0.00,Wunderground v.1.15,2015-05-06 12:52:00,
2015-05-06 08:57:00,62.0,41.0,30.28,WNW,290,1.0,4.0,46,0.00,,,0.00,Wunderground v.1.15,2015-05-06 12:57:00,
2015-05-06 09:02:00,62.4,40.2,30.28,WNW,294,0.0,2.0,44,0.00,,,0.00,Wunderground v.1.15,2015-05-06 13:02:00,
2015-05-06 09:07:00,62.6,42.1,30.28,WNW,294,1.0,4.0,47,0.00,,,0.00,Wunderground v.1.15,2015-05-06 13:07:00,
2015-05-06 09:12:00,63.1,40.8,30.28,WNW,292,0.0,2.0,44,0.00,,,0.00,Wunderground v.1.15,2015-05-06 13:12:00,
2015-05-06 09:17:00,63.8,41.5,30.28,WNW,282,4.0,4.0,44,0.00,,,0.00,Wunderground v.1.15,2015-05-06 13:17:00,
2015-05-06 09:22:00,63.9,39.7,30.27,West,276,2.0,2.0,41,0.00,,,0.00,Wunderground v.1.15,2015-05-06 13:22:00,
2015-05-06 09:27:00,64.5,36.9,30.27,ENE,61,0.0,7.0,36,0.00,,,0.00,Wunderground v.1.15,2015-05-06 13:27:00,
2015-05-06 09:32:00,64.8,39.2,30.27,West,270,2.0,6.0,39,0.00,,,0.00,Wunderground v.1.15,2015-05-06 13:32:00,
2015-05-06 09:37:00,65.2,43.3,30.27,WNW,285,4.0,7.0,45,0.00,,,0.00,Wunderground v.1.15,2015-05-06 13:37:00,
2015-05-06 09:42:00,65.4,36.3,30.27,WNW,302,5.0,5.0,34,0.00,,,0.00,Wunderground v.1.15,2015-05-06 13:42:00,
2015-05-06 09:47:00,65.6,36.5,30.27,West,269,2.0,7.0,34,0.00,,,0.00,Wunderground v.1.15,2015-05-06 13:47:00,
2015-05-06 09:52:00,66.5,38.7,30.27,WSW,250,5.0,5.0,36,0.00,,,0.00,Wunderground v.1.15,2015-05-06 13:52:00,
2015-05-06 09:57:00,66.9,36.1,30.27,NE,34,4.0,7.0,32,0.00,,,0.00,Wunderground v.1.15,2015-05-06 13:57:00,
2015-05-06 10:02:00,66.2,37.0,30.27,ENE,67,1.0,3.0,34,0.00,,,0.00,Wunderground v.1.15,2015-05-06 14:02:00,
2015-05-06 10:07:00,66.5,34.1,30.27,NNW,347,5.0,8.0,30,0.00,,,0.00,Wunderground v.1.15,2015-05-06 14:07:00,
2015-05-06 10:12:00,66.8,35.2,30.27,NNE,26,2.0,5.0,31,0.00,,,0.00,Wunderground v.1.15,2015-05-06 14:12:00,
2015-05-06 10:17:00,66.8,34.3,30.26,NE,46,3.0,7.0,30,0.00,,,0.00,Wunderground v.1.15,2015-05-06 14:17:00,
2015-05-06 10:22:00,66.7,34.3,30.26,NW,323,4.0,7.0,30,0.00,,,0.00,Wunderground v.1.15,2015-05-06 14:22:00,
2015-05-06 10:27:00,66.5,36.5,30.27,ENE,71,2.0,7.0,33,0.00,,,0.00,Wunderground v.1.15,2015-05-06 14:27:00,
2015-05-06 10:32:00,66.8,36.0,30.27,NNE,28,4.0,5.0,32,0.00,,,0.00,Wunderground v.1.15,2015-05-06 14:32:00,
2015-05-06 10:37:00,66.6,35.0,30.26,East,90,5.0,7.0,31,0.00,,,0.00,Wunderground v.1.15,2015-05-06 14:37:00,
2015-05-06 10:42:00,67.4,37.3,30.26,ENE,60,4.0,4.0,33,0.00,,,0.00,Wunderground v.1.15,2015-05-06 14:42:00,
2015-05-06 10:47:00,68.5,37.5,30.26,SE,136,1.0,6.0,32,0.00,,,0.00,Wunderground v.1.15,2015-05-06 14:47:00,
2015-05-06 10:52:00,68.6,39.1,30.26,NE,47,2.0,4.0,34,0.00,,,0.00,Wunderground v.1.15,2015-05-06 14:52:00,
2015-05-06 10:57:00,67.7,34.3,30.26,NE,38,2.0,5.0,29,0.00,,,0.00,Wunderground v.1.15,2015-05-06 14:57:00,
2015-05-06 11:02:00,67.9,35.3,30.25,SSE,161,5.0,7.0,30,0.00,,,0.00,Wunderground v.1.15,2015-05-06 15:02:00,
2015-05-06 11:07:00,68.0,37.0,30.25,West,263,2.0,7.0,32,0.00,,,0.00,Wunderground v.1.15,2015-05-06 15:07:00,
2015-05-06 11:12:00,68.6,35.9,30.25,SW,224,3.0,3.0,30,0.00,,,0.00,Wunderground v.1.15,2015-05-06 15:12:00,
2015-05-06 11:17:00,69.3,40.5,30.25,SW,229,5.0,6.0,35,0.00,,,0.00,Wunderground v.1.15,2015-05-06 15:17:00,
2015-05-06 11:22:00,70.3,33.8,30.25,West,280,0.0,12.0,26,0.00,,,0.00,Wunderground v.1.15,2015-05-06 15:22:00,
2015-05-06 11:27:00,70.1,41.2,30.25,WSW,258,8.0,12.0,35,0.00,,,0.00,Wunderground v.1.15,2015-05-06 15:27:00,
2015-05-06 11:32:00,69.7,35.1,30.24,NW,304,14.0,14.0,28,0.00,,,0.00,Wunderground v.1.15,2015-05-06 15:32:00,
2015-05-06 11:37:00,69.6,37.6,30.24,NNW,345,8.0,14.0,31,0.00,,,0.00,Wunderground v.1.15,2015-05-06 15:37:00,
2015-05-06 11:42:00,70.7,36.0,30.24,NE,51,4.0,6.0,28,0.00,,,0.00,Wunderground v.1.15,2015-05-06 15:42:00,
2015-05-06 11:47:00,70.2,37.3,30.24,NW,306,4.0,7.0,30,0.00,,,0.00,Wunderground v.1.15,2015-05-06 15:47:00,
2015-05-06 11:52:00,70.1,37.2,30.23,NE,43,4.0,9.0,30,0.00,,,0.00,Wunderground v.1.15,2015-05-06 15:52:00,
2015-05-06 11:57:00,71.2,37.3,30.23,ENE,78,5.0,9.0,29,0.00,,,0.00,Wunderground v.1.15,2015-05-06 15:57:00,
2015-05-06 12:02:00,70.7,36.9,30.23,ENE,72,8.0,8.0,29,0.00,,,0.00,Wunderground v.1.15,2015-05-06 16:02:00,
2015-05-06 12:07:00,70.8,37.8,30.23,ESE,104,2.0,8.0,30,0.00,,,0.00,Wunderground v.1.15,2015-05-06 16:07:00,
2015-05-06 12:12:00,71.7,35.9,30.22,ENE,61,3.0,4.0,27,0.00,,,0.00,Wunderground v.1.15,2015-05-06 16:12:00,
2015-05-06 12:17:00,70.9,37.0,30.22,WSW,250,3.0,4.0,29,0.00,,,0.00,Wunderground v.1.15,2015-05-06 16:17:00,
2015-05-06 12:22:00,71.7,39.4,30.22,SW,230,6.0,8.0,31,0.00,,,0.00,Wunderground v.1.15,2015-05-06 16:22:00,
2015-05-06 12:27:00,71.2,38.2,30.22,West,259,11.0,11.0,30,0.00,,,0.00,Wunderground v.1.15,2015-05-06 16:27:00,
2015-05-06 12:32:00,71.8,35.0,30.21,NW,315,1.0,13.0,26,0.00,,,0.00,Wunderground v.1.15,2015-05-06 16:32:00,
2015-05-06 12:37:00,72.2,37.3,30.21,North,350,5.0,13.0,28,0.00,,,0.00,Wunderground v.1.15,2015-05-06 16:37:00,
2015-05-06 12:42:00,72.4,39.2,30.21,NW,308,6.0,11.0,30,0.00,,,0.00,Wunderground v.1.15,2015-05-06 16:42:00,
2015-05-06 12:47:00,71.2,35.5,30.20,East,89,1.0,11.0,27,0.00,,,0.00,Wunderground v.1.15,2015-05-06 16:47:00,
2015-05-06 12:52:00,71.4,40.0,30.20,NE,51,3.0,4.0,32,0.00,,,0.00,Wunderground v.1.15,2015-05-06 16:52:00,
2015-05-06 12:57:00,71.9,36.1,30.20,SW,225,5.0,5.0,27,0.00,,,0.00,Wunderground v.1.15,2015-05-06 16:57:00,
2015-05-06 13:02:00,72.5,38.4,30.20,WSW,256,5.0,15.0,29,0.00,,,0.00,Wunderground v.1.15,2015-05-06 17:02:00,
2015-05-06 13:07:00,71.9,34.1,30.19,NE,34,3.0,15.0,25,0.00,,,0.00,Wunderground v.1.15,2015-05-06 17:07:00,
2015-05-06 13:12:00,71.7,35.0,30.19,WNW,291,4.0,6.0,26,0.00,,,0.00,Wunderground v.1.15,2015-05-06 17:12:00,
2015-05-06 13:17:00,72.0,39.7,30.18,NNW,338,1.0,6.0,31,0.00,,,0.00,Wunderground v.1.15,2015-05-06 17:17:00,
2015-05-06 13:22:00,73.1,37.1,30.18,NNE,24,4.0,8.0,27,0.00,,,0.00,Wunderground v.1.15,2015-05-06 17:22:00,
2015-05-06 13:27:00,73.0,35.1,30.18,West,280,4.0,8.0,25,0.00,,,0.00,Wunderground v.1.15,2015-05-06 17:27:00,
2015-05-06 13:32:00,72.9,34.0,30.18,South,172,0.0,5.0,24,0.00,,,0.00,Wunderground v.1.15,2015-05-06 17:32:00,
2015-05-06 13:37:00,73.1,35.2,30.17,East,86,3.0,6.0,25,0.00,,,0.00,Wunderground v.1.15,2015-05-06 17:37:00,
2015-05-06 13:42:00,74.1,43.9,30.18,SW,236,7.0,10.0,34,0.00,,,0.00,Wunderground v.1.15,2015-05-06 17:42:00,
2015-05-06 13:47:00,73.7,44.3,30.17,East,96,0.0,10.0,35,0.00,,,0.00,Wunderground v.1.15,2015-05-06 17:47:00,
2015-05-06 13:52:00,73.5,41.8,30.17,ESE,119,8.0,11.0,32,0.00,,,0.00,Wunderground v.1.15,2015-05-06 17:52:00,
2015-05-06 13:57:00,73.4,40.9,30.17,ESE,120,6.0,13.0,31,0.00,,,0.00,Wunderground v.1.15,2015-05-06 17:57:00,
2015-05-06 14:02:00,72.7,40.3,30.17,ESE,116,8.0,15.0,31,0.00,,,0.00,Wunderground v.1.15,2015-05-06 18:02:00,
2015-05-06 14:07:00,73.0,41.4,30.17,SE,146,9.0,15.0,32,0.00,,,0.00,Wunderground v.1.15,2015-05-06 18:07:00,
2015-05-06 14:12:00,73.0,40.6,30.17,East,94,4.0,11.0,31,0.00,,,0.00,Wunderground v.1.15,2015-05-06 18:12:00,
2015-05-06 14:17:00,72.1,39.8,30.17,SSE,155,7.0,13.0,31,0.00,,,0.00,Wunderground v.1.15,2015-05-06 18:17:00,
2015-05-06 14:22:00,72.6,39.4,30.16,ESE,119,12.0,15.0,30,0.00,,,0.00,Wunderground v.1.15,2015-05-06 18:22:00,
2015-05-06 14:27:00,72.3,39.1,30.16,SSE,162,5.0,15.0,30,0.00,,,0.00,Wunderground v.1.15,2015-05-06 18:27:00,
2015-05-06 14:32:00,72.5,41.0,30.16,SE,126,2.0,10.0,32,0.00,,,0.00,Wunderground v.1.15,2015-05-06 18:32:00,
2015-05-06 14:37:00,72.6,38.5,30.16,ESE,117,4.0,10.0,29,0.00,,,0.00,Wunderground v.1.15,2015-05-06 18:37:00,
2015-05-06 14:42:00,72.5,41.7,30.15,SSE,165,4.0,6.0,33,0.00,,,0.00,Wunderground v.1.15,2015-05-06 18:42:00,
2015-05-06 14:47:00,72.8,42.8,30.15,ESE,122,7.0,13.0,34,0.00,,,0.00,Wunderground v.1.15,2015-05-06 18:47:00,
2015-05-06 14:52:00,72.6,39.4,30.15,SSE,166,7.0,12.0,30,0.00,,,0.00,Wunderground v.1.15,2015-05-06 18:52:00,
2015-05-06 14:57:00,72.7,40.3,30.15,SSE,162,6.0,13.0,31,0.00,,,0.00,Wunderground v.1.15,2015-05-06 18:57:00,
2015-05-06 15:02:00,72.3,40.0,30.14,ESE,120,8.0,14.0,31,0.00,,,0.00,Wunderground v.1.15,2015-05-06 19:02:00,
2015-05-06 15:07:00,72.6,41.0,30.15,South,171,7.0,14.0,32,0.00,,,0.00,Wunderground v.1.15,2015-05-06 19:07:00,
2015-05-06 15:12:00,72.2,39.9,30.15,SE,130,12.0,15.0,31,0.00,,,0.00,Wunderground v.1.15,2015-05-06 19:12:00,
2015-05-06 15:17:00,72.6,40.2,30.14,SSE,159,8.0,15.0,31,0.00,,,0.00,Wunderground v.1.15,2015-05-06 19:17:00,
2015-05-06 15:22:00,72.4,39.2,30.14,East,84,3.0,12.0,30,0.00,,,0.00,Wunderground v.1.15,2015-05-06 19:22:00,
2015-05-06 15:27:00,72.4,40.0,30.14,SSE,155,5.0,12.0,31,0.00,,,0.00,Wunderground v.1.15,2015-05-06 19:27:00,
2015-05-06 15:32:00,72.2,38.2,30.14,SE,126,5.0,7.0,29,0.00,,,0.00,Wunderground v.1.15,2015-05-06 19:32:00,
2015-05-06 15:37:00,72.6,39.4,30.14,SSW,200,5.0,9.0,30,0.00,,,0.00,Wunderground v.1.15,2015-05-06 19:37:00,
2015-05-06 15:42:00,72.8,41.2,30.13,SSW,195,4.0,7.0,32,0.00,,,0.00,Wunderground v.1.15,2015-05-06 19:42:00,
2015-05-06 15:47:00,72.9,39.6,30.13,South,175,5.0,7.0,30,0.00,,,0.00,Wunderground v.1.15,2015-05-06 19:47:00,
2015-05-06 15:52:00,72.5,39.3,30.13,SE,143,7.0,9.0,30,0.00,,,0.00,Wunderground v.1.15,2015-05-06 19:52:00,
2015-05-06 15:57:00,73.0,39.7,30.13,South,174,4.0,9.0,30,0.00,,,0.00,Wunderground v.1.15,2015-05-06 19:57:00,
2015-05-06 16:02:00,72.9,38.8,30.13,SSW,200,2.0,9.0,29,0.00,,,0.00,Wunderground v.1.15,2015-05-06 20:02:00,
2015-05-06 16:07:00,72.6,40.2,30.12,SSW,207,6.0,9.0,31,0.00,,,0.00,Wunderground v.1.15,2015-05-06 20:07:00,
2015-05-06 16:12:00,72.8,39.5,30.12,ESE,119,9.0,12.0,30,0.00,,,0.00,Wunderground v.1.15,2015-05-06 20:12:00,
2015-05-06 16:18:00,73.0,42.2,30.12,ESE,104,8.0,12.0,33,0.00,,,0.00,Wunderground v.1.15,2015-05-06 20:18:00,
2015-05-06 16:23:00,72.6,39.4,30.12,South,182,9.0,13.0,30,0.00,,,0.00,Wunderground v.1.15,2015-05-06 20:23:00,
2015-05-06 16:28:00,72.1,38.9,30.12,SSW,209,5.0,13.0,30,0.00,,,0.00,Wunderground v.1.15,2015-05-06 20:28:00,
2015-05-06 16:33:00,71.8,38.7,30.12,South,171,5.0,15.0,30,0.00,,,0.00,Wunderground v.1.15,2015-05-06 20:33:00,
2015-05-06 16:38:00,71.7,39.4,30.12,South,186,2.0,15.0,31,0.00,,,0.00,Wunderground v.1.15,2015-05-06 20:38:00,
2015-05-06 16:43:00,71.6,38.5,30.11,SSW,202,9.0,9.0,30,0.00,,,0.00,Wunderground v.1.15,2015-05-06 20:43:00,
2015-05-06 16:48:00,71.5,39.3,30.11,SSE,149,10.0,12.0,31,0.00,,,0.00,Wunderground v.1.15,2015-05-06 20:48:00,
2015-05-06 16:53:00,71.9,37.9,30.11,SE,143,4.0,11.0,29,0.00,,,0.00,Wunderground v.1.15,2015-05-06 20:53:00,
2015-05-06 16:58:00,71.7,38.6,30.11,ESE,102,5.0,13.0,30,0.00,,,0.00,Wunderground v.1.15,2015-05-06 20:58:00,
2015-05-06 17:03:00,71.4,39.2,30.11,South,178,5.0,8.0,31,0.00,,,0.00,Wunderground v.1.15,2015-05-06 21:03:00,
2015-05-06 17:08:00,71.5,39.3,30.11,ESE,123,9.0,9.0,31,0.00,,,0.00,Wunderground v.1.15,2015-05-06 21:08:00,
2015-05-06 17:13:00,71.3,39.9,30.11,SSW,196,5.0,7.0,32,0.00,,,0.00,Wunderground v.1.15,2015-05-06 21:13:00,
2015-05-06 17:18:00,71.2,39.0,30.11,SE,128,8.0,9.0,31,0.00,,,0.00,Wunderground v.1.15,2015-05-06 21:18:00,
2015-05-06 17:23:00,70.9,38.7,30.11,South,186,4.0,11.0,31,0.00,,,0.00,Wunderground v.1.15,2015-05-06 21:23:00,
2015-05-06 17:28:00,71.0,38.8,30.11,SW,215,4.0,11.0,31,0.00,,,0.00,Wunderground v.1.15,2015-05-06 21:28:00,
2015-05-06 17:33:00,71.0,39.6,30.12,South,188,3.0,9.0,32,0.00,,,0.00,Wunderground v.1.15,2015-05-06 21:33:00,
2015-05-06 17:38:00,70.9,39.6,30.11,ESE,110,4.0,9.0,32,0.00,,,0.00,Wunderground v.1.15,2015-05-06 21:38:00,
2015-05-06 17:43:00,70.8,39.5,30.11,SSE,163,7.0,10.0,32,0.00,,,0.00,Wunderground v.1.15,2015-05-06 21:43:00,
2015-05-06 17:48:00,70.3,38.2,30.11,SE,129,0.0,10.0,31,0.00,,,0.00,Wunderground v.1.15,2015-05-06 21:48:00,
2015-05-06 17:53:00,70.0,38.0,30.11,SSE,163,2.0,7.0,31,0.00,,,0.00,Wunderground v.1.15,2015-05-06 21:53:00,
2015-05-06 17:58:00,69.9,39.5,30.11,SSW,195,2.0,7.0,33,0.00,,,0.00,Wunderground v.1.15,2015-05-06 21:58:00,
2015-05-06 18:03:00,70.0,39.6,30.11,SW,214,2.0,7.0,33,0.00,,,0.00,Wunderground v.1.15,2015-05-06 22:03:00,
2015-05-06 18:08:00,69.9,39.5,30.11,SSE,159,0.0,7.0,33,0.00,,,0.00,Wunderground v.1.15,2015-05-06 22:08:00,
2015-05-06 18:13:00,69.7,39.3,30.11,SSE,155,10.0,11.0,33,0.00,,,0.00,Wunderground v.1.15,2015-05-06 22:13:00,
2015-05-06 18:19:00,69.6,39.2,30.11,South,177,5.0,11.0,33,0.00,,,0.00,Wunderground v.1.15,2015-05-06 22:19:00,
2015-05-06 18:24:00,69.4,39.8,30.10,SSW,194,1.0,6.0,34,0.00,,,0.00,Wunderground v.1.15,2015-05-06 22:24:00,
2015-05-06 18:29:00,69.4,40.5,30.10,SSW,194,2.0,6.0,35,0.00,,,0.00,Wunderground v.1.15,2015-05-06 22:29:00,
2015-05-06 18:34:00,69.2,40.4,30.10,South,173,1.0,5.0,35,0.00,,,0.00,Wunderground v.1.15,2015-05-06 22:34:00,
2015-05-06 18:39:00,69.0,40.2,30.10,SSE,163,1.0,6.0,35,0.00,,,0.00,Wunderground v.1.15,2015-05-06 22:39:00,
2015-05-06 18:44:00,68.5,41.2,30.10,WSW,248,3.0,6.0,37,0.00,,,0.00,Wunderground v.1.15,2015-05-06 22:44:00,
2015-05-06 18:49:00,67.8,39.9,30.10,SSW,196,1.0,6.0,36,0.00,,,0.00,Wunderground v.1.15,2015-05-06 22:49:00,
2015-05-06 18:54:00,67.8,39.9,30.10,SSW,198,0.0,2.0,36,0.00,,,0.00,Wunderground v.1.15,2015-05-06 22:54:00,
2015-05-06 18:59:00,67.6,42.4,30.10,SSW,198,0.0,2.0,40,0.00,,,0.00,Wunderground v.1.15,2015-05-06 22:59:00,
2015-05-06 19:04:00,67.1,40.6,30.10,SE,133,0.0,6.0,38,0.00,,,0.00,Wunderground v.1.15,2015-05-06 23:04:00,
2015-05-06 19:09:00,66.4,42.0,30.10,SE,133,0.0,6.0,41,0.00,,,0.00,Wunderground v.1.15,2015-05-06 23:09:00,
2015-05-06 19:14:00,66.0,42.2,30.10,SE,133,0.0,1.0,42,0.00,,,0.00,Wunderground v.1.15,2015-05-06 23:14:00,
2015-05-06 19:19:00,64.9,42.5,30.10,SE,133,0.0,1.0,44,0.00,,,0.00,Wunderground v.1.15,2015-05-06 23:19:00,
2015-05-06 19:24:00,63.9,44.4,30.10,SE,133,1.0,2.0,49,0.00,,,0.00,Wunderground v.1.15,2015-05-06 23:24:00,
2015-05-06 19:29:00,62.5,43.6,30.10,SE,133,0.0,2.0,50,0.00,,,0.00,Wunderground v.1.15,2015-05-06 23:29:00,
2015-05-06 19:34:00,62.3,44.4,30.11,SE,134,1.0,4.0,52,0.00,,,0.00,Wunderground v.1.15,2015-05-06 23:34:00,
2015-05-06 19:39:00,62.0,44.2,30.11,SE,134,0.0,4.0,52,0.00,,,0.00,Wunderground v.1.15,2015-05-06 23:39:00,
2015-05-06 19:44:00,60.7,43.5,30.11,SE,134,0.0,2.0,53,0.00,,,0.00,Wunderground v.1.15,2015-05-06 23:44:00,
2015-05-06 19:49:00,59.5,45.6,30.11,SE,134,0.0,2.0,60,0.00,,,0.00,Wunderground v.1.15,2015-05-06 23:49:00,
2015-05-06 19:54:00,58.0,44.2,30.11,SE,134,1.0,2.0,60,0.00,,,0.00,Wunderground v.1.15,2015-05-06 23:54:00,
2015-05-06 19:59:00,57.2,43.9,30.11,SE,134,0.0,2.0,61,0.00,,,0.00,Wunderground v.1.15,2015-05-06 23:59:00,
2015-05-06 20:05:00,57.4,44.1,30.12,SE,134,0.0,0.0,61,0.00,,,0.00,Wunderground v.1.15,2015-05-07 00:05:00,
2015-05-06 20:10:00,56.4,43.1,30.12,SE,134,0.0,0.0,61,0.00,,,0.00,Wunderground v.1.15,2015-05-07 00:10:00,
2015-05-06 20:15:00,55.4,43.0,30.12,SE,134,0.0,0.0,63,0.00,,,0.00,Wunderground v.1.15,2015-05-07 00:15:00,
2015-05-06 20:20:00,54.4,43.7,30.12,SE,134,0.0,0.0,67,0.00,,,0.00,Wunderground v.1.15,2015-05-07 00:20:00,
2015-05-06 20:25:00,53.6,43.3,30.12,SE,134,0.0,0.0,68,0.00,,,0.00,Wunderground v.1.15,2015-05-07 00:25:00,
2015-05-06 20:30:00,53.8,43.1,30.12,SE,134,0.0,0.0,67,0.00,,,0.00,Wunderground v.1.15,2015-05-07 00:30:00,
2015-05-06 20:35:00,53.5,43.2,30.12,SE,134,0.0,1.0,68,0.00,,,0.00,Wunderground v.1.15,2015-05-07 00:35:00,
2015-05-06 20:40:00,52.7,42.8,30.12,SE,134,0.0,0.0,69,0.00,,,0.00,Wunderground v.1.15,2015-05-07 00:40:00,
2015-05-06 20:45:00,51.8,43.1,30.12,SE,134,0.0,0.0,72,0.00,,,0.00,Wunderground v.1.15,2015-05-07 00:45:00,
2015-05-06 20:50:00,51.0,42.6,30.12,SE,134,0.0,0.0,73,0.00,,,0.00,Wunderground v.1.15,2015-05-07 00:50:00,
2015-05-06 20:55:00,51.0,43.0,30.13,SE,134,0.0,0.0,74,0.00,,,0.00,Wunderground v.1.15,2015-05-07 00:55:00,
2015-05-06 21:00:00,50.7,43.1,30.13,SE,134,0.0,0.0,75,0.00,,,0.00,Wunderground v.1.15,2015-05-07 01:00:00,
2015-05-06 21:05:00,50.5,42.9,30.13,SE,134,0.0,0.0,75,0.00,,,0.00,Wunderground v.1.15,2015-05-07 01:05:00,
2015-05-06 21:10:00,49.9,43.0,30.13,SE,134,0.0,0.0,77,0.00,,,0.00,Wunderground v.1.15,2015-05-07 01:10:00,
2015-05-06 21:15:00,49.5,42.6,30.13,SE,134,0.0,0.0,77,0.00,,,0.00,Wunderground v.1.15,2015-05-07 01:15:00,
2015-05-06 21:20:00,49.4,42.8,30.13,SE,134,0.0,0.0,78,0.00,,,0.00,Wunderground v.1.15,2015-05-07 01:20:00,
2015-05-06 21:25:00,49.0,42.4,30.13,SE,134,0.0,0.0,78,0.00,,,0.00,Wunderground v.1.15,2015-05-07 01:25:00,
2015-05-06 21:30:00,48.6,42.7,30.13,SE,134,0.0,0.0,80,0.00,,,0.00,Wunderground v.1.15,2015-05-07 01:30:00,
2015-05-06 21:35:00,48.2,42.3,30.13,SE,134,0.0,0.0,80,0.00,,,0.00,Wunderground v.1.15,2015-05-07 01:35:00,
2015-05-06 21:40:00,48.1,42.5,30.13,SE,134,0.0,0.0,81,0.00,,,0.00,Wunderground v.1.15,2015-05-07 01:40:00,
2015-05-06 21:45:00,47.9,42.3,30.13,SE,134,0.0,0.0,81,0.00,,,0.00,Wunderground v.1.15,2015-05-07 01:45:00,
2015-05-06 21:50:00,47.9,42.3,30.14,SE,134,0.0,0.0,81,0.00,,,0.00,Wunderground v.1.15,2015-05-07 01:50:00,
2015-05-06 21:55:00,47.3,42.4,30.14,SE,134,0.0,1.0,83,0.00,,,0.00,Wunderground v.1.15,2015-05-07 01:55:00,
2015-05-06 22:00:00,47.2,42.3,30.14,SE,134,0.0,0.0,83,0.00,,,0.00,Wunderground v.1.15,2015-05-07 02:00:00,
2015-05-06 22:05:00,46.9,41.7,30.14,SE,134,0.0,0.0,82,0.00,,,0.00,Wunderground v.1.15,2015-05-07 02:05:00,
2015-05-06 22:10:00,46.3,41.4,30.14,SE,134,0.0,0.0,83,0.00,,,0.00,Wunderground v.1.15,2015-05-07 02:10:00,